sensor_id;sensor_type;location;lat;lon;timestamp;P1;durP1;ratioP1;P2;durP2;ratioP2
42666;SDS011;28280;49.646;14.130;2023-02-03T00:03:14;4.72;;;2.10;;
42666;SDS011;28280;49.646;14.130;2023-02-03T00:08:45;3.10;;;2.20;;
42666;SDS011;28280;49.646;14.130;2023-02-03T00:14:16;5.50;;;2.13;;
42666;SDS011;28280;49.646;14.130;2023-02-03T00:19:47;4.88;;;2.17;;
42666;SDS011;28280;49.646;14.130;2023-02-03T00:25:19;5.50;;;2.33;;
42666;SDS011;28280;49.646;14.130;2023-02-03T00:30:51;4.05;;;1.88;;
42666;SDS011;28280;49.646;14.130;2023-02-03T00:36:24;3.50;;;1.83;;
42666;SDS011;28280;49.646;14.130;2023-02-03T00:41:55;4.75;;;2.08;;
42666;SDS011;28280;49.646;14.130;2023-02-03T00:47:26;4.07;;;2.30;;
42666;SDS011;28280;49.646;14.130;2023-02-03T00:52:57;4.95;;;2.38;;
42666;SDS011;28280;49.646;14.130;2023-02-03T00:58:28;3.78;;;1.95;;
42666;SDS011;28280;49.646;14.130;2023-02-03T01:03:59;3.20;;;1.80;;
42666;SDS011;28280;49.646;14.130;2023-02-03T01:09:34;3.85;;;1.90;;
42666;SDS011;28280;49.646;14.130;2023-02-03T01:15:06;3.72;;;2.13;;
42666;SDS011;28280;49.646;14.130;2023-02-03T01:20:37;5.03;;;2.30;;
42666;SDS011;28280;49.646;14.130;2023-02-03T01:26:10;3.58;;;2.10;;
42666;SDS011;28280;49.646;14.130;2023-02-03T01:31:42;3.42;;;2.10;;
42666;SDS011;28280;49.646;14.130;2023-02-03T01:37:13;3.38;;;2.13;;
42666;SDS011;28280;49.646;14.130;2023-02-03T01:42:46;3.90;;;2.20;;
42666;SDS011;28280;49.646;14.130;2023-02-03T01:48:18;3.92;;;2.20;;
42666;SDS011;28280;49.646;14.130;2023-02-03T01:53:49;4.07;;;2.10;;
42666;SDS011;28280;49.646;14.130;2023-02-03T01:59:21;3.00;;;2.35;;
42666;SDS011;28280;49.646;14.130;2023-02-03T02:05:04;2.90;;;1.70;;
42666;SDS011;28280;49.646;14.130;2023-02-03T02:10:38;2.85;;;1.80;;
42666;SDS011;28280;49.646;14.130;2023-02-03T02:16:35;2.42;;;1.70;;
42666;SDS011;28280;49.646;14.130;2023-02-03T02:45:39;2.35;;;1.63;;
42666;SDS011;28280;49.646;14.130;2023-02-03T02:51:21;2.28;;;1.50;;
42666;SDS011;28280;49.646;14.130;2023-02-03T02:56:54;1.95;;;1.50;;
42666;SDS011;28280;49.646;14.130;2023-02-03T03:02:33;1.75;;;1.30;;
42666;SDS011;28280;49.646;14.130;2023-02-03T03:08:06;1.60;;;1.10;;
42666;SDS011;28280;49.646;14.130;2023-02-03T03:13:40;2.15;;;1.30;;
42666;SDS011;28280;49.646;14.130;2023-02-03T03:19:16;1.92;;;1.10;;
42666;SDS011;28280;49.646;14.130;2023-02-03T03:24:49;1.17;;;0.98;;
42666;SDS011;28280;49.646;14.130;2023-02-03T03:30:26;1.20;;;0.90;;
42666;SDS011;28280;49.646;14.130;2023-02-03T03:36:05;1.60;;;0.80;;
42666;SDS011;28280;49.646;14.130;2023-02-03T03:53:17;1.63;;;0.85;;
42666;SDS011;28280;49.646;14.130;2023-02-03T03:58:50;1.05;;;0.80;;
42666;SDS011;28280;49.646;14.130;2023-02-03T04:04:22;1.27;;;0.70;;
42666;SDS011;28280;49.646;14.130;2023-02-03T04:09:54;1.00;;;0.82;;
42666;SDS011;28280;49.646;14.130;2023-02-03T04:15:26;0.70;;;0.65;;
42666;SDS011;28280;49.646;14.130;2023-02-03T04:20:57;0.90;;;0.70;;
42666;SDS011;28280;49.646;14.130;2023-02-03T04:26:28;0.80;;;0.60;;
42666;SDS011;28280;49.646;14.130;2023-02-03T04:31:59;0.73;;;0.65;;
42666;SDS011;28280;49.646;14.130;2023-02-03T04:37:31;0.50;;;0.50;;
42666;SDS011;28280;49.646;14.130;2023-02-03T04:43:06;0.52;;;0.52;;
42666;SDS011;28280;49.646;14.130;2023-02-03T04:48:37;1.17;;;0.70;;
42666;SDS011;28280;49.646;14.130;2023-02-03T04:54:09;0.52;;;0.50;;
42666;SDS011;28280;49.646;14.130;2023-02-03T04:59:41;0.50;;;0.50;;
42666;SDS011;28280;49.646;14.130;2023-02-03T05:05:12;0.40;;;0.40;;
42666;SDS011;28280;49.646;14.130;2023-02-03T05:10:43;0.52;;;0.50;;
42666;SDS011;28280;49.646;14.130;2023-02-03T05:16:14;1.33;;;0.57;;
42666;SDS011;28280;49.646;14.130;2023-02-03T05:21:46;0.70;;;0.52;;
42666;SDS011;28280;49.646;14.130;2023-02-03T05:27:17;0.75;;;0.65;;
42666;SDS011;28280;49.646;14.130;2023-02-03T05:32:48;0.77;;;0.60;;
42666;SDS011;28280;49.646;14.130;2023-02-03T05:38:20;1.00;;;0.57;;
42666;SDS011;28280;49.646;14.130;2023-02-03T05:43:51;0.60;;;0.60;;
42666;SDS011;28280;49.646;14.130;2023-02-03T05:49:22;1.67;;;0.70;;
42666;SDS011;28280;49.646;14.130;2023-02-03T05:54:54;2.05;;;0.90;;
42666;SDS011;28280;49.646;14.130;2023-02-03T06:00:25;1.10;;;0.82;;
42666;SDS011;28280;49.646;14.130;2023-02-03T06:05:58;1.35;;;0.80;;
42666;SDS011;28280;49.646;14.130;2023-02-03T06:11:29;1.70;;;1.10;;
42666;SDS011;28280;49.646;14.130;2023-02-03T06:17:01;1.85;;;1.17;;
42666;SDS011;28280;49.646;14.130;2023-02-03T06:22:33;1.75;;;1.40;;
42666;SDS011;28280;49.646;14.130;2023-02-03T06:28:04;2.08;;;1.27;;
42666;SDS011;28280;49.646;14.130;2023-02-03T06:33:35;2.15;;;1.30;;
42666;SDS011;28280;49.646;14.130;2023-02-03T06:39:07;4.45;;;1.73;;
42666;SDS011;28280;49.646;14.130;2023-02-03T06:44:38;3.10;;;1.50;;
42666;SDS011;28280;49.646;14.130;2023-02-03T06:50:10;2.40;;;1.63;;
42666;SDS011;28280;49.646;14.130;2023-02-03T06:55:44;2.40;;;1.77;;
42666;SDS011;28280;49.646;14.130;2023-02-03T07:01:15;3.78;;;1.85;;
42666;SDS011;28280;49.646;14.130;2023-02-03T07:06:46;2.45;;;1.90;;
42666;SDS011;28280;49.646;14.130;2023-02-03T07:12:17;3.78;;;2.08;;
42666;SDS011;28280;49.646;14.130;2023-02-03T07:17:48;3.45;;;2.33;;
42666;SDS011;28280;49.646;14.130;2023-02-03T07:23:24;3.30;;;2.10;;
42666;SDS011;28280;49.646;14.130;2023-02-03T07:28:55;3.63;;;2.10;;
42666;SDS011;28280;49.646;14.130;2023-02-03T07:34:29;3.72;;;2.63;;
42666;SDS011;28280;49.646;14.130;2023-02-03T07:40:00;3.05;;;2.10;;
42666;SDS011;28280;49.646;14.130;2023-02-03T07:45:32;3.20;;;1.95;;
42666;SDS011;28280;49.646;14.130;2023-02-03T07:51:03;2.88;;;2.08;;
42666;SDS011;28280;49.646;14.130;2023-02-03T07:56:35;3.20;;;1.92;;
42666;SDS011;28280;49.646;14.130;2023-02-03T08:02:07;2.40;;;1.67;;
42666;SDS011;28280;49.646;14.130;2023-02-03T08:07:41;4.28;;;1.90;;
42666;SDS011;28280;49.646;14.130;2023-02-03T08:13:12;2.75;;;1.95;;
42666;SDS011;28280;49.646;14.130;2023-02-03T08:18:44;3.00;;;1.65;;
42666;SDS011;28280;49.646;14.130;2023-02-03T08:24:15;3.22;;;1.70;;
42666;SDS011;28280;49.646;14.130;2023-02-03T08:29:47;2.28;;;1.60;;
42666;SDS011;28280;49.646;14.130;2023-02-03T08:35:19;3.67;;;1.77;;
42666;SDS011;28280;49.646;14.130;2023-02-03T08:40:50;2.40;;;1.67;;
42666;SDS011;28280;49.646;14.130;2023-02-03T08:46:21;2.72;;;1.60;;
42666;SDS011;28280;49.646;14.130;2023-02-03T08:51:53;2.00;;;1.58;;
42666;SDS011;28280;49.646;14.130;2023-02-03T08:57:24;2.90;;;1.33;;
42666;SDS011;28280;49.646;14.130;2023-02-03T09:02:56;1.90;;;1.50;;
42666;SDS011;28280;49.646;14.130;2023-02-03T09:08:27;3.60;;;1.88;;
42666;SDS011;28280;49.646;14.130;2023-02-03T09:13:59;3.45;;;1.70;;
42666;SDS011;28280;49.646;14.130;2023-02-03T09:19:30;2.30;;;1.40;;
42666;SDS011;28280;49.646;14.130;2023-02-03T09:25:05;2.47;;;1.50;;
42666;SDS011;28280;49.646;14.130;2023-02-03T09:30:37;2.05;;;1.75;;
42666;SDS011;28280;49.646;14.130;2023-02-03T09:36:09;2.97;;;1.67;;
42666;SDS011;28280;49.646;14.130;2023-02-03T09:41:58;2.40;;;1.50;;
42666;SDS011;28280;49.646;14.130;2023-02-03T09:47:36;1.53;;;1.30;;
42666;SDS011;28280;49.646;14.130;2023-02-03T09:53:17;2.10;;;1.45;;
42666;SDS011;28280;49.646;14.130;2023-02-03T09:58:55;2.20;;;1.45;;
42666;SDS011;28280;49.646;14.130;2023-02-03T10:04:34;1.75;;;1.38;;
42666;SDS011;28280;49.646;14.130;2023-02-03T10:10:15;2.45;;;1.05;;
42666;SDS011;28280;49.646;14.130;2023-02-03T10:21:49;3.47;;;1.33;;
42666;SDS011;28280;49.646;14.130;2023-02-03T10:27:25;2.85;;;1.40;;
42666;SDS011;28280;49.646;14.130;2023-02-03T10:32:59;2.50;;;1.48;;
42666;SDS011;28280;49.646;14.130;2023-02-03T10:38:54;1.65;;;1.10;;
42666;SDS011;28280;49.646;14.130;2023-02-03T10:44:31;1.85;;;1.33;;
42666;SDS011;28280;49.646;14.130;2023-02-03T10:50:12;2.20;;;1.33;;
42666;SDS011;28280;49.646;14.130;2023-02-03T10:55:44;1.85;;;1.35;;
42666;SDS011;28280;49.646;14.130;2023-02-03T11:01:17;2.55;;;1.30;;
42666;SDS011;28280;49.646;14.130;2023-02-03T11:12:31;1.70;;;1.20;;
42666;SDS011;28280;49.646;14.130;2023-02-03T11:18:02;2.67;;;1.30;;
42666;SDS011;28280;49.646;14.130;2023-02-03T11:23:34;2.28;;;1.27;;
42666;SDS011;28280;49.646;14.130;2023-02-03T11:29:06;2.72;;;1.20;;
42666;SDS011;28280;49.646;14.130;2023-02-03T11:34:55;1.48;;;1.20;;
42666;SDS011;28280;49.646;14.130;2023-02-03T11:40:28;1.85;;;1.17;;
42666;SDS011;28280;49.646;14.130;2023-02-03T11:46:02;2.10;;;1.23;;
42666;SDS011;28280;49.646;14.130;2023-02-03T12:03:01;2.38;;;1.10;;
42666;SDS011;28280;49.646;14.130;2023-02-03T12:14:44;3.13;;;1.58;;
42666;SDS011;28280;49.646;14.130;2023-02-03T12:20:22;2.75;;;1.38;;
42666;SDS011;28280;49.646;14.130;2023-02-03T12:37:55;1.75;;;1.20;;
42666;SDS011;28280;49.646;14.130;2023-02-03T12:43:36;2.90;;;0.90;;
42666;SDS011;28280;49.646;14.130;2023-02-03T12:49:43;2.20;;;1.00;;
42666;SDS011;28280;49.646;14.130;2023-02-03T12:55:51;1.58;;;1.15;;
42666;SDS011;28280;49.646;14.130;2023-02-03T13:01:47;2.22;;;1.30;;
42666;SDS011;28280;49.646;14.130;2023-02-03T13:07:24;1.33;;;0.95;;
42666;SDS011;28280;49.646;14.130;2023-02-03T13:13:03;1.73;;;0.98;;
42666;SDS011;28280;49.646;14.130;2023-02-03T13:18:39;2.65;;;1.10;;
42666;SDS011;28280;49.646;14.130;2023-02-03T13:24:12;1.30;;;0.93;;
42666;SDS011;28280;49.646;14.130;2023-02-03T13:46:44;1.60;;;1.00;;
42666;SDS011;28280;49.646;14.130;2023-02-03T13:52:27;1.85;;;1.10;;
42666;SDS011;28280;49.646;14.130;2023-02-03T13:57:59;1.83;;;0.93;;
42666;SDS011;28280;49.646;14.130;2023-02-03T14:15:15;1.30;;;0.90;;
42666;SDS011;28280;49.646;14.130;2023-02-03T14:21:10;1.80;;;0.75;;
42666;SDS011;28280;49.646;14.130;2023-02-03T14:32:23;1.63;;;0.80;;
42666;SDS011;28280;49.646;14.130;2023-02-03T14:37:57;1.63;;;0.90;;
42666;SDS011;28280;49.646;14.130;2023-02-03T14:43:51;1.13;;;0.80;;
42666;SDS011;28280;49.646;14.130;2023-02-03T14:50:00;1.90;;;0.90;;
42666;SDS011;28280;49.646;14.130;2023-02-03T15:07:06;1.60;;;0.90;;
42666;SDS011;28280;49.646;14.130;2023-02-03T15:12:37;1.60;;;0.75;;
42666;SDS011;28280;49.646;14.130;2023-02-03T15:18:19;1.58;;;0.85;;
42666;SDS011;28280;49.646;14.130;2023-02-03T15:36:51;1.55;;;0.77;;
42666;SDS011;28280;49.646;14.130;2023-02-03T15:42:41;1.15;;;0.75;;
42666;SDS011;28280;49.646;14.130;2023-02-03T16:05:38;2.08;;;0.80;;
42666;SDS011;28280;49.646;14.130;2023-02-03T16:11:23;1.35;;;0.80;;
42666;SDS011;28280;49.646;14.130;2023-02-03T16:16:57;1.13;;;0.70;;
42666;SDS011;28280;49.646;14.130;2023-02-03T16:22:36;1.50;;;0.73;;
42666;SDS011;28280;49.646;14.130;2023-02-03T16:28:15;0.93;;;0.60;;
42666;SDS011;28280;49.646;14.130;2023-02-03T16:34:13;2.03;;;0.70;;
42666;SDS011;28280;49.646;14.130;2023-02-03T16:40:04;1.75;;;0.90;;
42666;SDS011;28280;49.646;14.130;2023-02-03T16:45:55;1.30;;;0.80;;
42666;SDS011;28280;49.646;14.130;2023-02-03T16:51:46;2.28;;;1.10;;
42666;SDS011;28280;49.646;14.130;2023-02-03T16:57:18;1.92;;;1.10;;
42666;SDS011;28280;49.646;14.130;2023-02-03T17:02:49;2.53;;;1.10;;
42666;SDS011;28280;49.646;14.130;2023-02-03T17:08:22;4.72;;;0.93;;
42666;SDS011;28280;49.646;14.130;2023-02-03T17:13:55;2.92;;;1.23;;
42666;SDS011;28280;49.646;14.130;2023-02-03T17:19:27;3.13;;;1.38;;
42666;SDS011;28280;49.646;14.130;2023-02-03T17:24:58;5.43;;;1.35;;
42666;SDS011;28280;49.646;14.130;2023-02-03T17:30:29;4.88;;;1.65;;
42666;SDS011;28280;49.646;14.130;2023-02-03T17:36:06;4.63;;;1.40;;
42666;SDS011;28280;49.646;14.130;2023-02-03T17:41:42;3.53;;;1.35;;
42666;SDS011;28280;49.646;14.130;2023-02-03T17:47:31;3.78;;;1.33;;
42666;SDS011;28280;49.646;14.130;2023-02-03T17:53:20;2.72;;;1.30;;
42666;SDS011;28280;49.646;14.130;2023-02-03T17:58:55;4.68;;;1.60;;
42666;SDS011;28280;49.646;14.130;2023-02-03T18:04:27;3.00;;;1.48;;
42666;SDS011;28280;49.646;14.130;2023-02-03T18:09:58;4.43;;;1.60;;
42666;SDS011;28280;49.646;14.130;2023-02-03T18:15:30;4.53;;;1.52;;
42666;SDS011;28280;49.646;14.130;2023-02-03T18:21:03;5.07;;;1.40;;
42666;SDS011;28280;49.646;14.130;2023-02-03T18:26:35;4.88;;;1.58;;
42666;SDS011;28280;49.646;14.130;2023-02-03T18:32:16;4.93;;;1.50;;
42666;SDS011;28280;49.646;14.130;2023-02-03T18:37:47;5.28;;;1.67;;
42666;SDS011;28280;49.646;14.130;2023-02-03T18:43:18;4.47;;;1.48;;
42666;SDS011;28280;49.646;14.130;2023-02-03T18:48:50;3.33;;;1.60;;
42666;SDS011;28280;49.646;14.130;2023-02-03T18:54:21;5.32;;;1.67;;
42666;SDS011;28280;49.646;14.130;2023-02-03T18:59:52;6.25;;;1.83;;
42666;SDS011;28280;49.646;14.130;2023-02-03T19:05:24;5.07;;;1.67;;
42666;SDS011;28280;49.646;14.130;2023-02-03T19:10:55;5.75;;;2.10;;
42666;SDS011;28280;49.646;14.130;2023-02-03T19:16:26;6.03;;;1.90;;
42666;SDS011;28280;49.646;14.130;2023-02-03T19:21:57;5.13;;;1.92;;
42666;SDS011;28280;49.646;14.130;2023-02-03T19:27:29;7.88;;;2.10;;
42666;SDS011;28280;49.646;14.130;2023-02-03T19:33:00;7.50;;;1.98;;
42666;SDS011;28280;49.646;14.130;2023-02-03T19:38:31;7.90;;;2.05;;
42666;SDS011;28280;49.646;14.130;2023-02-03T19:44:02;5.25;;;2.05;;
42666;SDS011;28280;49.646;14.130;2023-02-03T19:49:35;6.60;;;2.37;;
42666;SDS011;28280;49.646;14.130;2023-02-03T19:55:06;7.88;;;2.33;;
42666;SDS011;28280;49.646;14.130;2023-02-03T20:00:38;7.57;;;2.17;;
42666;SDS011;28280;49.646;14.130;2023-02-03T20:06:10;7.80;;;2.03;;
42666;SDS011;28280;49.646;14.130;2023-02-03T20:11:41;9.77;;;2.20;;
42666;SDS011;28280;49.646;14.130;2023-02-03T20:17:12;9.93;;;2.20;;
42666;SDS011;28280;49.646;14.130;2023-02-03T20:22:43;9.38;;;2.38;;
42666;SDS011;28280;49.646;14.130;2023-02-03T20:28:15;8.32;;;2.50;;
42666;SDS011;28280;49.646;14.130;2023-02-03T20:33:47;10.10;;;2.25;;
42666;SDS011;28280;49.646;14.130;2023-02-03T20:39:18;10.55;;;2.55;;
42666;SDS011;28280;49.646;14.130;2023-02-03T20:44:50;6.78;;;2.13;;
42666;SDS011;28280;49.646;14.130;2023-02-03T20:50:22;9.60;;;3.15;;
42666;SDS011;28280;49.646;14.130;2023-02-03T20:56:06;8.63;;;2.40;;
42666;SDS011;28280;49.646;14.130;2023-02-03T21:01:42;6.13;;;2.20;;
42666;SDS011;28280;49.646;14.130;2023-02-03T21:07:13;8.05;;;2.22;;
42666;SDS011;28280;49.646;14.130;2023-02-03T21:12:46;7.32;;;1.90;;
42666;SDS011;28280;49.646;14.130;2023-02-03T21:18:39;5.78;;;1.85;;
42666;SDS011;28280;49.646;14.130;2023-02-03T21:29:53;7.40;;;2.33;;
42666;SDS011;28280;49.646;14.130;2023-02-03T21:40:58;6.82;;;2.13;;
42666;SDS011;28280;49.646;14.130;2023-02-03T21:46:31;10.38;;;2.20;;
42666;SDS011;28280;49.646;14.130;2023-02-03T21:52:03;6.90;;;1.90;;
42666;SDS011;28280;49.646;14.130;2023-02-03T21:57:34;10.00;;;2.33;;
42666;SDS011;28280;49.646;14.130;2023-02-03T22:03:05;4.88;;;1.90;;
42666;SDS011;28280;49.646;14.130;2023-02-03T22:08:40;9.35;;;2.13;;
42666;SDS011;28280;49.646;14.130;2023-02-03T22:14:13;7.43;;;2.20;;
42666;SDS011;28280;49.646;14.130;2023-02-03T22:19:46;8.73;;;1.90;;
42666;SDS011;28280;49.646;14.130;2023-02-03T22:25:17;10.35;;;2.08;;
42666;SDS011;28280;49.646;14.130;2023-02-03T22:30:48;7.18;;;2.08;;
42666;SDS011;28280;49.646;14.130;2023-02-03T22:36:19;7.68;;;2.15;;
42666;SDS011;28280;49.646;14.130;2023-02-03T22:41:53;6.53;;;2.00;;
42666;SDS011;28280;49.646;14.130;2023-02-03T22:47:24;8.73;;;2.00;;
42666;SDS011;28280;49.646;14.130;2023-02-03T22:52:56;7.75;;;1.67;;
42666;SDS011;28280;49.646;14.130;2023-02-03T22:58:27;7.38;;;2.00;;
42666;SDS011;28280;49.646;14.130;2023-02-03T23:03:58;8.63;;;1.98;;
42666;SDS011;28280;49.646;14.130;2023-02-03T23:09:29;6.15;;;1.88;;
42666;SDS011;28280;49.646;14.130;2023-02-03T23:15:01;9.02;;;2.30;;
42666;SDS011;28280;49.646;14.130;2023-02-03T23:20:31;6.57;;;1.75;;
42666;SDS011;28280;49.646;14.130;2023-02-03T23:26:03;4.53;;;1.63;;
42666;SDS011;28280;49.646;14.130;2023-02-03T23:31:35;7.10;;;1.75;;
42666;SDS011;28280;49.646;14.130;2023-02-03T23:37:06;5.22;;;1.35;;
42666;SDS011;28280;49.646;14.130;2023-02-03T23:42:37;6.70;;;2.00;;
42666;SDS011;28280;49.646;14.130;2023-02-03T23:48:08;5.00;;;1.42;;
42666;SDS011;28280;49.646;14.130;2023-02-03T23:53:39;5.53;;;1.38;;
42666;SDS011;28280;49.646;14.130;2023-02-03T23:59:10;8.18;;;1.55;;
